sensor_id;sensor_type;location;lat;lon;timestamp;temperature;humidity
79018;DHT22;69817;44.694;37.774;2023-04-30T00:00:36;26.95;46.96
79018;DHT22;69817;44.694;37.774;2023-04-30T00:01:38;26.92;47.06
79018;DHT22;69817;44.694;37.774;2023-04-30T00:02:40;26.91;46.98
79018;DHT22;69817;44.694;37.774;2023-04-30T00:03:41;26.91;47.06
79018;DHT22;69817;44.694;37.774;2023-04-30T00:04:43;26.91;47.05
79018;DHT22;69817;44.694;37.774;2023-04-30T00:05:44;26.91;47.04
79018;DHT22;69817;44.694;37.774;2023-04-30T00:06:46;26.91;47.09
79018;DHT22;69817;44.694;37.774;2023-04-30T00:07:47;26.90;47.12
79018;DHT22;69817;44.694;37.774;2023-04-30T00:08:49;26.92;47.15
79018;DHT22;69817;44.694;37.774;2023-04-30T00:09:50;26.91;47.00
79018;DHT22;69817;44.694;37.774;2023-04-30T00:10:52;26.91;46.96
79018;DHT22;69817;44.694;37.774;2023-04-30T00:11:54;26.92;46.93
79018;DHT22;69817;44.694;37.774;2023-04-30T00:12:55;26.92;47.15
79018;DHT22;69817;44.694;37.774;2023-04-30T00:13:57;26.92;47.02
79018;DHT22;69817;44.694;37.774;2023-04-30T00:14:58;26.91;46.98
79018;DHT22;69817;44.694;37.774;2023-04-30T00:16:01;26.90;46.93
79018;DHT22;69817;44.694;37.774;2023-04-30T00:17:03;26.89;46.94
79018;DHT22;69817;44.694;37.774;2023-04-30T00:18:04;26.91;47.01
79018;DHT22;69817;44.694;37.774;2023-04-30T00:19:07;26.90;47.07
79018;DHT22;69817;44.694;37.774;2023-04-30T00:20:08;26.89;47.05
79018;DHT22;69817;44.694;37.774;2023-04-30T00:21:10;26.89;47.09
79018;DHT22;69817;44.694;37.774;2023-04-30T00:22:12;26.90;47.10
79018;DHT22;69817;44.694;37.774;2023-04-30T00:23:13;26.89;47.07
79018;DHT22;69817;44.694;37.774;2023-04-30T00:24:15;26.90;47.11
79018;DHT22;69817;44.694;37.774;2023-04-30T00:25:16;26.87;47.12
79018;DHT22;69817;44.694;37.774;2023-04-30T00:26:18;26.87;47.03
79018;DHT22;69817;44.694;37.774;2023-04-30T00:27:22;26.87;47.11
79018;DHT22;69817;44.694;37.774;2023-04-30T00:28:24;26.90;47.05
79018;DHT22;69817;44.694;37.774;2023-04-30T00:29:25;26.87;47.14
79018;DHT22;69817;44.694;37.774;2023-04-30T00:30:27;26.87;47.06
79018;DHT22;69817;44.694;37.774;2023-04-30T00:31:28;26.89;47.15
79018;DHT22;69817;44.694;37.774;2023-04-30T00:32:30;26.87;47.05
79018;DHT22;69817;44.694;37.774;2023-04-30T00:33:32;26.86;47.17
79018;DHT22;69817;44.694;37.774;2023-04-30T00:34:33;26.89;46.99
79018;DHT22;69817;44.694;37.774;2023-04-30T00:35:34;26.86;47.00
79018;DHT22;69817;44.694;37.774;2023-04-30T00:36:36;26.86;47.15
79018;DHT22;69817;44.694;37.774;2023-04-30T00:37:39;26.86;47.10
79018;DHT22;69817;44.694;37.774;2023-04-30T00:38:41;26.86;47.13
79018;DHT22;69817;44.694;37.774;2023-04-30T00:39:42;26.85;47.09
79018;DHT22;69817;44.694;37.774;2023-04-30T00:40:45;26.87;47.03
79018;DHT22;69817;44.694;37.774;2023-04-30T00:41:47;26.86;46.96
79018;DHT22;69817;44.694;37.774;2023-04-30T00:42:48;26.87;47.01
79018;DHT22;69817;44.694;37.774;2023-04-30T00:43:52;26.86;47.05
79018;DHT22;69817;44.694;37.774;2023-04-30T00:44:53;26.86;47.17
79018;DHT22;69817;44.694;37.774;2023-04-30T00:45:55;26.86;47.07
79018;DHT22;69817;44.694;37.774;2023-04-30T00:46:58;26.87;47.00
79018;DHT22;69817;44.694;37.774;2023-04-30T00:48:00;26.85;47.07
79018;DHT22;69817;44.694;37.774;2023-04-30T00:49:02;26.87;47.18
79018;DHT22;69817;44.694;37.774;2023-04-30T00:50:05;26.87;47.12
79018;DHT22;69817;44.694;37.774;2023-04-30T00:51:07;26.87;47.07
79018;DHT22;69817;44.694;37.774;2023-04-30T00:52:09;26.86;47.13
79018;DHT22;69817;44.694;37.774;2023-04-30T00:53:11;26.86;47.05
79018;DHT22;69817;44.694;37.774;2023-04-30T00:54:13;26.87;47.22
79018;DHT22;69817;44.694;37.774;2023-04-30T00:55:15;26.85;46.94
79018;DHT22;69817;44.694;37.774;2023-04-30T00:56:17;26.84;47.19
79018;DHT22;69817;44.694;37.774;2023-04-30T00:57:19;26.83;47.15
79018;DHT22;69817;44.694;37.774;2023-04-30T00:58:21;26.84;47.02
79018;DHT22;69817;44.694;37.774;2023-04-30T00:59:23;26.82;47.10
79018;DHT22;69817;44.694;37.774;2023-04-30T01:00:26;26.82;47.14
79018;DHT22;69817;44.694;37.774;2023-04-30T01:01:29;26.84;47.08
79018;DHT22;69817;44.694;37.774;2023-04-30T01:02:31;26.84;47.11
79018;DHT22;69817;44.694;37.774;2023-04-30T01:03:33;26.83;47.09
79018;DHT22;69817;44.694;37.774;2023-04-30T01:04:38;26.83;47.06
79018;DHT22;69817;44.694;37.774;2023-04-30T01:05:39;26.83;47.05
79018;DHT22;69817;44.694;37.774;2023-04-30T01:06:41;26.84;47.15
79018;DHT22;69817;44.694;37.774;2023-04-30T01:07:44;26.84;47.11
79018;DHT22;69817;44.694;37.774;2023-04-30T01:08:47;26.83;47.12
79018;DHT22;69817;44.694;37.774;2023-04-30T01:09:49;26.83;47.12
79018;DHT22;69817;44.694;37.774;2023-04-30T01:12:33;26.80;47.22
79018;DHT22;69817;44.694;37.774;2023-04-30T01:15:34;26.78;47.28
79018;DHT22;69817;44.694;37.774;2023-04-30T01:16:58;26.78;47.25
79018;DHT22;69817;44.694;37.774;2023-04-30T01:19:36;26.76;47.22
79018;DHT22;69817;44.694;37.774;2023-04-30T01:20:46;26.76;47.41
79018;DHT22;69817;44.694;37.774;2023-04-30T01:21:49;26.76;47.30
79018;DHT22;69817;44.694;37.774;2023-04-30T01:22:54;26.77;47.37
79018;DHT22;69817;44.694;37.774;2023-04-30T01:25:34;26.75;47.46
79018;DHT22;69817;44.694;37.774;2023-04-30T01:28:08;26.73;47.35
79018;DHT22;69817;44.694;37.774;2023-04-30T01:29:14;26.72;47.32
79018;DHT22;69817;44.694;37.774;2023-04-30T01:30:17;26.73;47.31
79018;DHT22;69817;44.694;37.774;2023-04-30T01:31:19;26.75;47.38
79018;DHT22;69817;44.694;37.774;2023-04-30T01:32:21;26.75;47.48
79018;DHT22;69817;44.694;37.774;2023-04-30T01:33:22;26.75;47.33
79018;DHT22;69817;44.694;37.774;2023-04-30T01:34:24;26.75;47.34
79018;DHT22;69817;44.694;37.774;2023-04-30T01:38:27;26.73;47.31
79018;DHT22;69817;44.694;37.774;2023-04-30T01:40:07;26.73;47.31
79018;DHT22;69817;44.694;37.774;2023-04-30T01:41:53;26.73;47.34
79018;DHT22;69817;44.694;37.774;2023-04-30T01:42:39;26.75;47.31
79018;DHT22;69817;44.694;37.774;2023-04-30T01:45:12;26.71;47.40
79018;DHT22;69817;44.694;37.774;2023-04-30T01:46:28;26.71;47.37
79018;DHT22;69817;44.694;37.774;2023-04-30T01:47:48;26.71;47.34
79018;DHT22;69817;44.694;37.774;2023-04-30T01:51:29;26.70;47.45
79018;DHT22;69817;44.694;37.774;2023-04-30T01:52:52;26.70;47.49
79018;DHT22;69817;44.694;37.774;2023-04-30T01:53:57;26.70;47.44
79018;DHT22;69817;44.694;37.774;2023-04-30T01:55:10;26.69;47.34
79018;DHT22;69817;44.694;37.774;2023-04-30T01:56:36;26.71;47.35
79018;DHT22;69817;44.694;37.774;2023-04-30T01:58:04;26.70;47.49
79018;DHT22;69817;44.694;37.774;2023-04-30T01:59:07;26.71;47.58
79018;DHT22;69817;44.694;37.774;2023-04-30T02:00:10;26.72;47.63
79018;DHT22;69817;44.694;37.774;2023-04-30T02:01:29;26.71;47.50
79018;DHT22;69817;44.694;37.774;2023-04-30T02:02:31;26.71;47.68
79018;DHT22;69817;44.694;37.774;2023-04-30T02:03:33;26.70;47.52
79018;DHT22;69817;44.694;37.774;2023-04-30T02:04:35;26.72;47.43
79018;DHT22;69817;44.694;37.774;2023-04-30T02:05:38;26.71;47.67
79018;DHT22;69817;44.694;37.774;2023-04-30T02:06:40;26.72;47.50
79018;DHT22;69817;44.694;37.774;2023-04-30T02:07:43;26.73;47.55
79018;DHT22;69817;44.694;37.774;2023-04-30T02:08:45;26.72;47.57
79018;DHT22;69817;44.694;37.774;2023-04-30T02:09:46;26.72;47.63
79018;DHT22;69817;44.694;37.774;2023-04-30T02:10:48;26.72;47.55
79018;DHT22;69817;44.694;37.774;2023-04-30T02:11:50;26.73;47.58
79018;DHT22;69817;44.694;37.774;2023-04-30T02:12:52;26.72;47.49
79018;DHT22;69817;44.694;37.774;2023-04-30T02:13:53;26.73;47.44
79018;DHT22;69817;44.694;37.774;2023-04-30T02:14:55;26.72;47.54
79018;DHT22;69817;44.694;37.774;2023-04-30T02:15:57;26.73;47.41
79018;DHT22;69817;44.694;37.774;2023-04-30T02:16:59;26.73;47.45
79018;DHT22;69817;44.694;37.774;2023-04-30T02:18:01;26.73;47.25
79018;DHT22;69817;44.694;37.774;2023-04-30T02:19:02;26.75;47.53
79018;DHT22;69817;44.694;37.774;2023-04-30T02:20:04;26.72;47.31
79018;DHT22;69817;44.694;37.774;2023-04-30T02:21:06;26.73;47.47
79018;DHT22;69817;44.694;37.774;2023-04-30T02:22:07;26.73;47.50
79018;DHT22;69817;44.694;37.774;2023-04-30T02:23:10;26.73;47.47
79018;DHT22;69817;44.694;37.774;2023-04-30T02:24:11;26.72;47.51
79018;DHT22;69817;44.694;37.774;2023-04-30T02:25:13;26.73;47.44
79018;DHT22;69817;44.694;37.774;2023-04-30T02:26:14;26.72;47.54
79018;DHT22;69817;44.694;37.774;2023-04-30T02:27:16;26.72;47.34
79018;DHT22;69817;44.694;37.774;2023-04-30T02:28:18;26.72;47.51
79018;DHT22;69817;44.694;37.774;2023-04-30T02:29:19;26.72;47.36
79018;DHT22;69817;44.694;37.774;2023-04-30T02:30:21;26.72;47.53
79018;DHT22;69817;44.694;37.774;2023-04-30T02:31:22;26.71;47.44
79018;DHT22;69817;44.694;37.774;2023-04-30T02:32:24;26.73;47.39
79018;DHT22;69817;44.694;37.774;2023-04-30T02:33:26;26.72;47.39
79018;DHT22;69817;44.694;37.774;2023-04-30T02:34:28;26.72;47.47
79018;DHT22;69817;44.694;37.774;2023-04-30T02:35:29;26.73;47.40
79018;DHT22;69817;44.694;37.774;2023-04-30T02:36:30;26.73;47.31
79018;DHT22;69817;44.694;37.774;2023-04-30T02:37:36;26.75;47.47
79018;DHT22;69817;44.694;37.774;2023-04-30T02:38:37;26.73;47.37
79018;DHT22;69817;44.694;37.774;2023-04-30T02:39:39;26.72;47.26
79018;DHT22;69817;44.694;37.774;2023-04-30T02:40:41;26.72;47.34
79018;DHT22;69817;44.694;37.774;2023-04-30T02:41:43;26.73;47.34
79018;DHT22;69817;44.694;37.774;2023-04-30T02:42:44;26.73;47.28
79018;DHT22;69817;44.694;37.774;2023-04-30T02:43:46;26.73;47.25
79018;DHT22;69817;44.694;37.774;2023-04-30T02:44:47;26.73;47.45
79018;DHT22;69817;44.694;37.774;2023-04-30T02:45:49;26.69;47.40
79018;DHT22;69817;44.694;37.774;2023-04-30T02:46:50;26.71;47.51
79018;DHT22;69817;44.694;37.774;2023-04-30T02:47:52;26.71;47.51
79018;DHT22;69817;44.694;37.774;2023-04-30T02:48:53;26.71;47.56
79018;DHT22;69817;44.694;37.774;2023-04-30T02:49:55;26.72;47.42
79018;DHT22;69817;44.694;37.774;2023-04-30T02:50:57;26.71;47.47
79018;DHT22;69817;44.694;37.774;2023-04-30T02:51:58;26.72;47.51
79018;DHT22;69817;44.694;37.774;2023-04-30T02:52:59;26.72;47.45
79018;DHT22;69817;44.694;37.774;2023-04-30T02:54:05;26.73;47.47
79018;DHT22;69817;44.694;37.774;2023-04-30T02:55:07;26.72;47.44
79018;DHT22;69817;44.694;37.774;2023-04-30T02:56:08;26.72;47.41
79018;DHT22;69817;44.694;37.774;2023-04-30T02:57:10;26.71;47.39
79018;DHT22;69817;44.694;37.774;2023-04-30T02:58:12;26.72;47.34
79018;DHT22;69817;44.694;37.774;2023-04-30T02:59:13;26.72;47.24
79018;DHT22;69817;44.694;37.774;2023-04-30T03:00:15;26.72;47.23
79018;DHT22;69817;44.694;37.774;2023-04-30T03:01:17;26.72;47.15
79018;DHT22;69817;44.694;37.774;2023-04-30T03:02:19;26.72;47.23
79018;DHT22;69817;44.694;37.774;2023-04-30T03:03:23;26.73;47.24
79018;DHT22;69817;44.694;37.774;2023-04-30T03:04:25;26.73;47.12
79018;DHT22;69817;44.694;37.774;2023-04-30T03:05:27;26.72;47.15
79018;DHT22;69817;44.694;37.774;2023-04-30T03:06:29;26.73;47.13
79018;DHT22;69817;44.694;37.774;2023-04-30T03:07:31;26.73;47.09
79018;DHT22;69817;44.694;37.774;2023-04-30T03:08:34;26.73;47.19
79018;DHT22;69817;44.694;37.774;2023-04-30T03:09:35;26.72;47.11
79018;DHT22;69817;44.694;37.774;2023-04-30T03:10:37;26.71;47.17
79018;DHT22;69817;44.694;37.774;2023-04-30T03:11:38;26.71;47.04
79018;DHT22;69817;44.694;37.774;2023-04-30T03:12:40;26.72;47.01
79018;DHT22;69817;44.694;37.774;2023-04-30T03:13:42;26.73;47.02
79018;DHT22;69817;44.694;37.774;2023-04-30T03:14:46;26.72;47.01
79018;DHT22;69817;44.694;37.774;2023-04-30T03:15:48;26.73;47.09
79018;DHT22;69817;44.694;37.774;2023-04-30T03:16:49;26.72;47.06
79018;DHT22;69817;44.694;37.774;2023-04-30T03:17:51;26.72;47.05
79018;DHT22;69817;44.694;37.774;2023-04-30T03:18:52;26.73;47.03
79018;DHT22;69817;44.694;37.774;2023-04-30T03:19:54;26.72;47.02
79018;DHT22;69817;44.694;37.774;2023-04-30T03:20:56;26.70;47.10
79018;DHT22;69817;44.694;37.774;2023-04-30T03:21:58;26.70;47.11
79018;DHT22;69817;44.694;37.774;2023-04-30T03:22:59;26.72;47.11
79018;DHT22;69817;44.694;37.774;2023-04-30T03:24:01;26.71;46.99
79018;DHT22;69817;44.694;37.774;2023-04-30T03:25:03;26.72;47.00
79018;DHT22;69817;44.694;37.774;2023-04-30T03:26:05;26.70;47.12
79018;DHT22;69817;44.694;37.774;2023-04-30T03:27:06;26.71;46.87
79018;DHT22;69817;44.694;37.774;2023-04-30T03:28:08;26.71;46.93
79018;DHT22;69817;44.694;37.774;2023-04-30T03:29:09;26.71;46.98
79018;DHT22;69817;44.694;37.774;2023-04-30T03:30:11;26.70;46.95
79018;DHT22;69817;44.694;37.774;2023-04-30T03:31:12;26.71;47.05
79018;DHT22;69817;44.694;37.774;2023-04-30T03:32:14;26.71;46.96
79018;DHT22;69817;44.694;37.774;2023-04-30T03:33:15;26.72;46.91
79018;DHT22;69817;44.694;37.774;2023-04-30T03:34:17;26.72;46.88
79018;DHT22;69817;44.694;37.774;2023-04-30T03:35:18;26.70;46.83
79018;DHT22;69817;44.694;37.774;2023-04-30T03:36:20;26.71;46.85
79018;DHT22;69817;44.694;37.774;2023-04-30T03:37:22;26.71;46.84
79018;DHT22;69817;44.694;37.774;2023-04-30T03:38:24;26.72;46.82
79018;DHT22;69817;44.694;37.774;2023-04-30T03:39:26;26.71;46.68
79018;DHT22;69817;44.694;37.774;2023-04-30T03:40:27;26.72;46.77
79018;DHT22;69817;44.694;37.774;2023-04-30T03:41:29;26.72;46.77
79018;DHT22;69817;44.694;37.774;2023-04-30T03:42:30;26.71;46.80
79018;DHT22;69817;44.694;37.774;2023-04-30T03:43:32;26.72;46.71
79018;DHT22;69817;44.694;37.774;2023-04-30T03:44:34;26.72;46.67
79018;DHT22;69817;44.694;37.774;2023-04-30T03:45:36;26.75;46.66
79018;DHT22;69817;44.694;37.774;2023-04-30T03:46:37;26.72;46.63
79018;DHT22;69817;44.694;37.774;2023-04-30T03:47:39;26.70;46.61
79018;DHT22;69817;44.694;37.774;2023-04-30T03:48:40;26.72;46.83
79018;DHT22;69817;44.694;37.774;2023-04-30T03:49:42;26.73;46.78
79018;DHT22;69817;44.694;37.774;2023-04-30T03:50:44;26.73;46.81
79018;DHT22;69817;44.694;37.774;2023-04-30T03:51:46;26.73;46.78
79018;DHT22;69817;44.694;37.774;2023-04-30T03:52:48;26.71;46.71
79018;DHT22;69817;44.694;37.774;2023-04-30T03:53:50;26.71;46.82
79018;DHT22;69817;44.694;37.774;2023-04-30T03:54:51;26.72;46.87
79018;DHT22;69817;44.694;37.774;2023-04-30T03:55:54;26.72;46.83
79018;DHT22;69817;44.694;37.774;2023-04-30T03:56:56;26.70;46.76
79018;DHT22;69817;44.694;37.774;2023-04-30T03:57:58;26.70;46.93
79018;DHT22;69817;44.694;37.774;2023-04-30T03:59:00;26.71;46.88
79018;DHT22;69817;44.694;37.774;2023-04-30T04:00:05;26.72;46.68
79018;DHT22;69817;44.694;37.774;2023-04-30T04:01:14;26.70;46.68
79018;DHT22;69817;44.694;37.774;2023-04-30T04:02:16;26.71;46.58
79018;DHT22;69817;44.694;37.774;2023-04-30T04:03:17;26.72;46.73
79018;DHT22;69817;44.694;37.774;2023-04-30T04:04:19;26.72;46.55
79018;DHT22;69817;44.694;37.774;2023-04-30T04:05:20;26.71;46.51
79018;DHT22;69817;44.694;37.774;2023-04-30T04:06:23;26.70;46.76
79018;DHT22;69817;44.694;37.774;2023-04-30T04:07:24;26.71;46.59
79018;DHT22;69817;44.694;37.774;2023-04-30T04:08:26;26.71;46.73
79018;DHT22;69817;44.694;37.774;2023-04-30T04:09:28;26.71;46.70
79018;DHT22;69817;44.694;37.774;2023-04-30T04:10:30;26.72;46.60
79018;DHT22;69817;44.694;37.774;2023-04-30T04:11:32;26.73;46.64
79018;DHT22;69817;44.694;37.774;2023-04-30T04:12:34;26.73;46.61
79018;DHT22;69817;44.694;37.774;2023-04-30T04:13:35;26.75;46.60
79018;DHT22;69817;44.694;37.774;2023-04-30T04:14:37;26.75;46.59
79018;DHT22;69817;44.694;37.774;2023-04-30T04:15:38;26.77;46.34
79018;DHT22;69817;44.694;37.774;2023-04-30T04:16:41;26.79;46.62
79018;DHT22;69817;44.694;37.774;2023-04-30T04:17:42;26.80;46.51
79018;DHT22;69817;44.694;37.774;2023-04-30T04:18:44;26.79;46.48
79018;DHT22;69817;44.694;37.774;2023-04-30T04:19:46;26.81;46.57
79018;DHT22;69817;44.694;37.774;2023-04-30T04:20:49;26.81;46.51
79018;DHT22;69817;44.694;37.774;2023-04-30T04:21:52;26.81;46.31
79018;DHT22;69817;44.694;37.774;2023-04-30T04:22:53;26.81;46.50
79018;DHT22;69817;44.694;37.774;2023-04-30T04:23:55;26.83;46.54
79018;DHT22;69817;44.694;37.774;2023-04-30T04:24:58;26.84;46.59
79018;DHT22;69817;44.694;37.774;2023-04-30T04:25:59;26.84;46.41
79018;DHT22;69817;44.694;37.774;2023-04-30T04:27:02;26.85;46.41
79018;DHT22;69817;44.694;37.774;2023-04-30T04:28:03;26.86;46.55
79018;DHT22;69817;44.694;37.774;2023-04-30T04:29:05;26.85;46.37
79018;DHT22;69817;44.694;37.774;2023-04-30T04:30:11;26.85;46.12
79018;DHT22;69817;44.694;37.774;2023-04-30T04:31:14;26.85;46.11
79018;DHT22;69817;44.694;37.774;2023-04-30T04:32:16;26.83;45.96
79018;DHT22;69817;44.694;37.774;2023-04-30T04:33:18;26.83;45.99
79018;DHT22;69817;44.694;37.774;2023-04-30T04:34:20;26.83;45.97
79018;DHT22;69817;44.694;37.774;2023-04-30T04:35:21;26.82;45.89
79018;DHT22;69817;44.694;37.774;2023-04-30T04:36:24;26.82;45.94
79018;DHT22;69817;44.694;37.774;2023-04-30T04:37:27;26.82;45.96
79018;DHT22;69817;44.694;37.774;2023-04-30T04:38:29;26.81;45.93
79018;DHT22;69817;44.694;37.774;2023-04-30T04:39:31;26.80;45.94
79018;DHT22;69817;44.694;37.774;2023-04-30T04:40:32;26.79;46.18
79018;DHT22;69817;44.694;37.774;2023-04-30T04:41:35;26.81;46.12
79018;DHT22;69817;44.694;37.774;2023-04-30T04:42:38;26.79;46.25
79018;DHT22;69817;44.694;37.774;2023-04-30T04:43:39;26.80;46.35
79018;DHT22;69817;44.694;37.774;2023-04-30T04:44:41;26.80;46.57
79018;DHT22;69817;44.694;37.774;2023-04-30T04:45:43;26.80;46.50
79018;DHT22;69817;44.694;37.774;2023-04-30T04:46:45;26.81;46.54
79018;DHT22;69817;44.694;37.774;2023-04-30T04:47:46;26.83;46.55
79018;DHT22;69817;44.694;37.774;2023-04-30T04:48:48;26.82;46.57
79018;DHT22;69817;44.694;37.774;2023-04-30T04:49:50;26.82;46.63
79018;DHT22;69817;44.694;37.774;2023-04-30T04:50:51;26.84;46.73
79018;DHT22;69817;44.694;37.774;2023-04-30T04:51:53;26.84;46.74
79018;DHT22;69817;44.694;37.774;2023-04-30T04:52:55;26.84;46.86
79018;DHT22;69817;44.694;37.774;2023-04-30T04:53:56;26.84;47.02
79018;DHT22;69817;44.694;37.774;2023-04-30T04:54:58;26.84;47.13
79018;DHT22;69817;44.694;37.774;2023-04-30T04:56:00;26.86;47.09
79018;DHT22;69817;44.694;37.774;2023-04-30T04:57:02;26.85;47.23
79018;DHT22;69817;44.694;37.774;2023-04-30T04:58:03;26.86;47.12
79018;DHT22;69817;44.694;37.774;2023-04-30T04:59:05;26.85;47.08
79018;DHT22;69817;44.694;37.774;2023-04-30T05:00:07;26.87;47.14
79018;DHT22;69817;44.694;37.774;2023-04-30T05:01:10;26.85;47.15
79018;DHT22;69817;44.694;37.774;2023-04-30T05:02:12;26.86;47.02
79018;DHT22;69817;44.694;37.774;2023-04-30T05:03:13;26.86;47.02
79018;DHT22;69817;44.694;37.774;2023-04-30T05:04:15;26.87;47.09
79018;DHT22;69817;44.694;37.774;2023-04-30T05:05:18;26.86;47.08
79018;DHT22;69817;44.694;37.774;2023-04-30T05:06:20;26.85;46.94
79018;DHT22;69817;44.694;37.774;2023-04-30T05:07:22;26.84;46.93
79018;DHT22;69817;44.694;37.774;2023-04-30T05:08:24;26.85;46.85
79018;DHT22;69817;44.694;37.774;2023-04-30T05:09:25;26.85;46.73
79018;DHT22;69817;44.694;37.774;2023-04-30T05:10:27;26.87;46.76
79018;DHT22;69817;44.694;37.774;2023-04-30T05:11:29;26.87;46.65
79018;DHT22;69817;44.694;37.774;2023-04-30T05:12:31;26.89;46.39
79018;DHT22;69817;44.694;37.774;2023-04-30T05:13:32;26.90;46.44
79018;DHT22;69817;44.694;37.774;2023-04-30T05:14:34;26.90;46.32
79018;DHT22;69817;44.694;37.774;2023-04-30T05:15:36;26.89;46.28
79018;DHT22;69817;44.694;37.774;2023-04-30T05:16:37;26.90;46.26
79018;DHT22;69817;44.694;37.774;2023-04-30T05:17:39;26.90;46.30
79018;DHT22;69817;44.694;37.774;2023-04-30T05:18:40;26.91;46.19
79018;DHT22;69817;44.694;37.774;2023-04-30T05:19:42;26.89;46.00
79018;DHT22;69817;44.694;37.774;2023-04-30T05:20:44;26.92;46.25
79018;DHT22;69817;44.694;37.774;2023-04-30T05:21:48;26.90;46.22
79018;DHT22;69817;44.694;37.774;2023-04-30T05:22:49;26.90;46.13
79018;DHT22;69817;44.694;37.774;2023-04-30T05:23:51;26.90;46.20
79018;DHT22;69817;44.694;37.774;2023-04-30T05:24:52;26.90;46.15
79018;DHT22;69817;44.694;37.774;2023-04-30T05:25:54;26.91;46.10
79018;DHT22;69817;44.694;37.774;2023-04-30T05:26:56;26.91;46.06
79018;DHT22;69817;44.694;37.774;2023-04-30T05:27:57;26.92;45.84
79018;DHT22;69817;44.694;37.774;2023-04-30T05:28:59;26.92;45.85
79018;DHT22;69817;44.694;37.774;2023-04-30T05:30:01;26.92;45.96
79018;DHT22;69817;44.694;37.774;2023-04-30T05:31:03;26.92;45.90
79018;DHT22;69817;44.694;37.774;2023-04-30T05:32:04;26.93;45.79
79018;DHT22;69817;44.694;37.774;2023-04-30T05:33:06;26.93;45.92
79018;DHT22;69817;44.694;37.774;2023-04-30T05:34:07;26.95;45.78
79018;DHT22;69817;44.694;37.774;2023-04-30T05:35:09;26.96;46.00
79018;DHT22;69817;44.694;37.774;2023-04-30T05:36:10;26.97;45.90
79018;DHT22;69817;44.694;37.774;2023-04-30T05:37:12;26.97;45.92
79018;DHT22;69817;44.694;37.774;2023-04-30T05:38:14;26.97;45.83
79018;DHT22;69817;44.694;37.774;2023-04-30T05:39:16;26.98;45.80
79018;DHT22;69817;44.694;37.774;2023-04-30T05:40:17;27.01;45.56
79018;DHT22;69817;44.694;37.774;2023-04-30T05:41:20;27.02;43.65
79018;DHT22;69817;44.694;37.774;2023-04-30T05:42:21;26.96;42.55
79018;DHT22;69817;44.694;37.774;2023-04-30T05:43:23;26.92;44.81
79018;DHT22;69817;44.694;37.774;2023-04-30T05:44:24;26.91;44.90
79018;DHT22;69817;44.694;37.774;2023-04-30T05:45:26;26.89;44.59
79018;DHT22;69817;44.694;37.774;2023-04-30T05:46:27;26.85;44.88
79018;DHT22;69817;44.694;37.774;2023-04-30T05:47:29;26.82;45.15
79018;DHT22;69817;44.694;37.774;2023-04-30T05:48:31;26.81;44.68
79018;DHT22;69817;44.694;37.774;2023-04-30T05:49:33;26.78;45.19
79018;DHT22;69817;44.694;37.774;2023-04-30T05:50:34;26.80;45.33
79018;DHT22;69817;44.694;37.774;2023-04-30T05:51:36;26.80;45.39
79018;DHT22;69817;44.694;37.774;2023-04-30T05:52:38;26.80;44.89
79018;DHT22;69817;44.694;37.774;2023-04-30T05:53:39;26.80;45.16
79018;DHT22;69817;44.694;37.774;2023-04-30T05:54:41;26.78;44.91
79018;DHT22;69817;44.694;37.774;2023-04-30T05:55:43;26.79;44.87
79018;DHT22;69817;44.694;37.774;2023-04-30T05:56:44;26.80;45.14
79018;DHT22;69817;44.694;37.774;2023-04-30T05:57:46;26.80;45.05
79018;DHT22;69817;44.694;37.774;2023-04-30T05:58:48;26.79;45.03
79018;DHT22;69817;44.694;37.774;2023-04-30T05:59:51;26.79;45.11
79018;DHT22;69817;44.694;37.774;2023-04-30T06:00:53;26.78;45.68
79018;DHT22;69817;44.694;37.774;2023-04-30T06:01:55;26.77;47.05
79018;DHT22;69817;44.694;37.774;2023-04-30T06:02:56;26.78;46.76
79018;DHT22;69817;44.694;37.774;2023-04-30T06:03:58;26.77;47.93
79018;DHT22;69817;44.694;37.774;2023-04-30T06:05:01;26.79;48.37
79018;DHT22;69817;44.694;37.774;2023-04-30T06:06:03;26.81;47.86
79018;DHT22;69817;44.694;37.774;2023-04-30T06:07:05;26.84;47.63
79018;DHT22;69817;44.694;37.774;2023-04-30T06:08:07;26.90;47.13
79018;DHT22;69817;44.694;37.774;2023-04-30T06:09:08;26.93;47.05
79018;DHT22;69817;44.694;37.774;2023-04-30T06:10:10;26.99;46.86
79018;DHT22;69817;44.694;37.774;2023-04-30T06:11:12;27.00;46.90
79018;DHT22;69817;44.694;37.774;2023-04-30T06:12:15;27.08;46.67
79018;DHT22;69817;44.694;37.774;2023-04-30T06:13:16;27.12;46.43
79018;DHT22;69817;44.694;37.774;2023-04-30T06:14:18;27.19;46.58
79018;DHT22;69817;44.694;37.774;2023-04-30T06:15:21;27.22;46.41
79018;DHT22;69817;44.694;37.774;2023-04-30T06:16:22;27.26;46.29
79018;DHT22;69817;44.694;37.774;2023-04-30T06:17:24;27.26;46.09
79018;DHT22;69817;44.694;37.774;2023-04-30T06:18:26;27.27;46.33
79018;DHT22;69817;44.694;37.774;2023-04-30T06:19:28;27.28;46.12
79018;DHT22;69817;44.694;37.774;2023-04-30T06:20:30;27.28;46.17
79018;DHT22;69817;44.694;37.774;2023-04-30T06:21:32;27.30;46.09
79018;DHT22;69817;44.694;37.774;2023-04-30T06:22:34;27.31;46.13
79018;DHT22;69817;44.694;37.774;2023-04-30T06:23:35;27.34;46.19
79018;DHT22;69817;44.694;37.774;2023-04-30T06:24:38;27.35;46.24
79018;DHT22;69817;44.694;37.774;2023-04-30T06:25:39;27.37;46.52
79018;DHT22;69817;44.694;37.774;2023-04-30T06:26:41;27.42;46.25
79018;DHT22;69817;44.694;37.774;2023-04-30T06:27:42;27.44;45.83
79018;DHT22;69817;44.694;37.774;2023-04-30T06:28:44;27.49;45.90
79018;DHT22;69817;44.694;37.774;2023-04-30T06:29:46;27.49;45.96
79018;DHT22;69817;44.694;37.774;2023-04-30T06:30:48;27.52;45.93
79018;DHT22;69817;44.694;37.774;2023-04-30T06:31:50;27.54;45.86
79018;DHT22;69817;44.694;37.774;2023-04-30T06:32:52;27.52;45.87
79018;DHT22;69817;44.694;37.774;2023-04-30T06:33:54;27.50;45.40
79018;DHT22;69817;44.694;37.774;2023-04-30T06:34:55;27.49;45.67
79018;DHT22;69817;44.694;37.774;2023-04-30T06:35:57;27.45;45.54
79018;DHT22;69817;44.694;37.774;2023-04-30T06:36:58;27.44;45.81
79018;DHT22;69817;44.694;37.774;2023-04-30T06:38:01;27.41;45.95
79018;DHT22;69817;44.694;37.774;2023-04-30T06:39:02;27.44;45.70
79018;DHT22;69817;44.694;37.774;2023-04-30T06:40:05;27.41;45.62
79018;DHT22;69817;44.694;37.774;2023-04-30T06:41:07;27.40;45.94
79018;DHT22;69817;44.694;37.774;2023-04-30T06:42:09;27.41;45.48
79018;DHT22;69817;44.694;37.774;2023-04-30T06:43:11;27.37;45.69
79018;DHT22;69817;44.694;37.774;2023-04-30T06:44:12;27.36;45.55